sensor_id;sensor_type;location;lat;lon;timestamp;P1;durP1;ratioP1;P2;durP2;ratioP2
59442;SDS011;45247;47.466;19.004;2023-05-19T00:00:05;5.38;;;2.92;;
59442;SDS011;45247;47.466;19.004;2023-05-19T00:02:40;3.92;;;2.83;;
59442;SDS011;45247;47.466;19.004;2023-05-19T00:05:10;4.20;;;3.00;;
59442;SDS011;45247;47.466;19.004;2023-05-19T00:07:40;3.78;;;3.00;;
59442;SDS011;45247;47.466;19.004;2023-05-19T00:10:11;6.43;;;2.97;;
59442;SDS011;45247;47.466;19.004;2023-05-19T00:12:40;8.95;;;3.65;;
59442;SDS011;45247;47.466;19.004;2023-05-19T00:15:12;4.38;;;2.95;;
59442;SDS011;45247;47.466;19.004;2023-05-19T00:17:41;4.63;;;2.80;;
59442;SDS011;45247;47.466;19.004;2023-05-19T00:20:10;6.05;;;3.10;;
59442;SDS011;45247;47.466;19.004;2023-05-19T00:22:39;3.92;;;2.80;;
59442;SDS011;45247;47.466;19.004;2023-05-19T00:25:09;5.60;;;3.22;;
59442;SDS011;45247;47.466;19.004;2023-05-19T00:27:37;4.43;;;3.13;;
59442;SDS011;45247;47.466;19.004;2023-05-19T00:30:06;5.45;;;3.00;;
59442;SDS011;45247;47.466;19.004;2023-05-19T00:32:36;4.35;;;2.85;;
59442;SDS011;45247;47.466;19.004;2023-05-19T00:35:06;6.55;;;3.30;;
59442;SDS011;45247;47.466;19.004;2023-05-19T00:37:37;4.63;;;3.38;;
59442;SDS011;45247;47.466;19.004;2023-05-19T00:40:06;5.18;;;3.28;;
59442;SDS011;45247;47.466;19.004;2023-05-19T00:42:36;16.50;;;3.78;;
59442;SDS011;45247;47.466;19.004;2023-05-19T00:45:05;7.60;;;3.60;;
59442;SDS011;45247;47.466;19.004;2023-05-19T00:47:34;5.07;;;3.47;;
59442;SDS011;45247;47.466;19.004;2023-05-19T00:50:04;6.18;;;3.90;;
59442;SDS011;45247;47.466;19.004;2023-05-19T00:52:32;6.25;;;3.70;;
59442;SDS011;45247;47.466;19.004;2023-05-19T00:55:01;5.28;;;3.75;;
59442;SDS011;45247;47.466;19.004;2023-05-19T00:57:29;5.80;;;3.40;;
59442;SDS011;45247;47.466;19.004;2023-05-19T00:59:57;4.88;;;3.85;;
59442;SDS011;45247;47.466;19.004;2023-05-19T01:02:26;3.97;;;2.72;;
59442;SDS011;45247;47.466;19.004;2023-05-19T01:04:55;8.95;;;3.25;;
59442;SDS011;45247;47.466;19.004;2023-05-19T01:07:25;5.80;;;3.80;;
59442;SDS011;45247;47.466;19.004;2023-05-19T01:09:54;5.55;;;3.65;;
59442;SDS011;45247;47.466;19.004;2023-05-19T01:12:23;8.25;;;4.68;;
59442;SDS011;45247;47.466;19.004;2023-05-19T01:14:52;5.93;;;4.22;;
59442;SDS011;45247;47.466;19.004;2023-05-19T01:17:28;6.88;;;3.92;;
59442;SDS011;45247;47.466;19.004;2023-05-19T01:22:41;4.82;;;3.22;;
59442;SDS011;45247;47.466;19.004;2023-05-19T01:25:51;5.00;;;3.67;;
59442;SDS011;45247;47.466;19.004;2023-05-19T01:28:47;5.60;;;3.80;;
59442;SDS011;45247;47.466;19.004;2023-05-19T01:31:30;4.27;;;3.40;;
59442;SDS011;45247;47.466;19.004;2023-05-19T01:34:00;6.15;;;3.63;;
59442;SDS011;45247;47.466;19.004;2023-05-19T01:36:31;6.90;;;3.33;;
59442;SDS011;45247;47.466;19.004;2023-05-19T01:39:00;3.65;;;2.80;;
59442;SDS011;45247;47.466;19.004;2023-05-19T01:41:29;4.00;;;2.90;;
59442;SDS011;45247;47.466;19.004;2023-05-19T01:43:59;10.68;;;4.38;;
59442;SDS011;45247;47.466;19.004;2023-05-19T01:46:27;4.60;;;3.63;;
59442;SDS011;45247;47.466;19.004;2023-05-19T01:48:57;5.75;;;3.80;;
59442;SDS011;45247;47.466;19.004;2023-05-19T01:51:26;5.60;;;4.38;;
59442;SDS011;45247;47.466;19.004;2023-05-19T01:53:54;9.55;;;5.15;;
59442;SDS011;45247;47.466;19.004;2023-05-19T01:56:24;10.93;;;4.85;;
59442;SDS011;45247;47.466;19.004;2023-05-19T01:59:07;7.67;;;5.03;;
59442;SDS011;45247;47.466;19.004;2023-05-19T02:01:50;5.93;;;4.10;;
59442;SDS011;45247;47.466;19.004;2023-05-19T02:04:24;8.20;;;4.67;;
59442;SDS011;45247;47.466;19.004;2023-05-19T02:07:00;5.78;;;3.83;;
59442;SDS011;45247;47.466;19.004;2023-05-19T02:09:33;5.50;;;3.60;;
59442;SDS011;45247;47.466;19.004;2023-05-19T02:12:10;5.47;;;4.25;;
59442;SDS011;45247;47.466;19.004;2023-05-19T02:14:44;10.70;;;4.82;;
59442;SDS011;45247;47.466;19.004;2023-05-19T02:17:19;8.48;;;4.75;;
59442;SDS011;45247;47.466;19.004;2023-05-19T02:19:51;11.48;;;5.53;;
59442;SDS011;45247;47.466;19.004;2023-05-19T02:22:19;7.18;;;4.03;;
59442;SDS011;45247;47.466;19.004;2023-05-19T02:24:47;6.15;;;4.38;;
59442;SDS011;45247;47.466;19.004;2023-05-19T02:27:17;7.10;;;4.38;;
59442;SDS011;45247;47.466;19.004;2023-05-19T02:29:45;11.02;;;6.13;;
59442;SDS011;45247;47.466;19.004;2023-05-19T02:32:13;6.68;;;4.35;;
59442;SDS011;45247;47.466;19.004;2023-05-19T02:34:42;4.65;;;3.88;;
59442;SDS011;45247;47.466;19.004;2023-05-19T02:37:12;5.78;;;3.92;;
59442;SDS011;45247;47.466;19.004;2023-05-19T02:39:41;5.20;;;3.78;;
59442;SDS011;45247;47.466;19.004;2023-05-19T02:42:09;9.20;;;5.20;;
59442;SDS011;45247;47.466;19.004;2023-05-19T02:44:40;8.82;;;5.93;;
59442;SDS011;45247;47.466;19.004;2023-05-19T02:47:08;7.00;;;5.50;;
59442;SDS011;45247;47.466;19.004;2023-05-19T02:49:36;9.13;;;5.70;;
59442;SDS011;45247;47.466;19.004;2023-05-19T02:52:05;9.68;;;5.95;;
59442;SDS011;45247;47.466;19.004;2023-05-19T02:54:35;7.22;;;5.78;;
59442;SDS011;45247;47.466;19.004;2023-05-19T02:57:03;9.65;;;5.57;;
59442;SDS011;45247;47.466;19.004;2023-05-19T02:59:32;9.13;;;4.70;;
59442;SDS011;45247;47.466;19.004;2023-05-19T03:02:00;6.53;;;4.45;;
59442;SDS011;45247;47.466;19.004;2023-05-19T03:04:30;6.32;;;4.18;;
59442;SDS011;45247;47.466;19.004;2023-05-19T03:06:58;6.25;;;4.18;;
59442;SDS011;45247;47.466;19.004;2023-05-19T03:09:27;5.30;;;4.10;;
59442;SDS011;45247;47.466;19.004;2023-05-19T03:11:57;7.80;;;4.25;;
59442;SDS011;45247;47.466;19.004;2023-05-19T03:14:30;7.65;;;5.43;;
59442;SDS011;45247;47.466;19.004;2023-05-19T03:16:59;6.30;;;5.03;;
59442;SDS011;45247;47.466;19.004;2023-05-19T03:19:27;6.90;;;4.80;;
59442;SDS011;45247;47.466;19.004;2023-05-19T03:21:57;6.60;;;4.57;;
59442;SDS011;45247;47.466;19.004;2023-05-19T03:24:25;7.13;;;4.05;;
59442;SDS011;45247;47.466;19.004;2023-05-19T03:26:54;6.57;;;4.28;;
59442;SDS011;45247;47.466;19.004;2023-05-19T03:29:23;6.55;;;4.47;;
59442;SDS011;45247;47.466;19.004;2023-05-19T03:31:51;7.68;;;4.93;;
59442;SDS011;45247;47.466;19.004;2023-05-19T03:34:19;7.28;;;5.00;;
59442;SDS011;45247;47.466;19.004;2023-05-19T03:36:47;5.47;;;3.70;;
59442;SDS011;45247;47.466;19.004;2023-05-19T03:39:16;6.40;;;4.43;;
59442;SDS011;45247;47.466;19.004;2023-05-19T03:41:44;8.25;;;4.65;;
59442;SDS011;45247;47.466;19.004;2023-05-19T03:44:12;7.03;;;5.15;;
59442;SDS011;45247;47.466;19.004;2023-05-19T03:46:42;7.78;;;5.38;;
59442;SDS011;45247;47.466;19.004;2023-05-19T03:49:10;8.35;;;4.68;;
59442;SDS011;45247;47.466;19.004;2023-05-19T03:51:39;6.93;;;5.43;;
59442;SDS011;45247;47.466;19.004;2023-05-19T03:54:08;15.63;;;4.72;;
59442;SDS011;45247;47.466;19.004;2023-05-19T03:56:38;9.52;;;4.90;;
59442;SDS011;45247;47.466;19.004;2023-05-19T03:59:07;11.32;;;5.78;;
59442;SDS011;45247;47.466;19.004;2023-05-19T04:01:38;8.90;;;5.30;;
59442;SDS011;45247;47.466;19.004;2023-05-19T04:04:07;6.15;;;4.30;;
59442;SDS011;45247;47.466;19.004;2023-05-19T04:06:37;6.07;;;4.57;;
59442;SDS011;45247;47.466;19.004;2023-05-19T04:09:10;6.50;;;4.93;;
59442;SDS011;45247;47.466;19.004;2023-05-19T04:11:39;8.82;;;5.32;;
59442;SDS011;45247;47.466;19.004;2023-05-19T04:14:08;7.95;;;4.95;;
59442;SDS011;45247;47.466;19.004;2023-05-19T04:16:36;7.38;;;4.50;;
59442;SDS011;45247;47.466;19.004;2023-05-19T04:19:04;4.80;;;3.90;;
59442;SDS011;45247;47.466;19.004;2023-05-19T04:21:34;7.45;;;3.95;;
59442;SDS011;45247;47.466;19.004;2023-05-19T04:24:02;6.28;;;4.18;;
59442;SDS011;45247;47.466;19.004;2023-05-19T04:26:32;6.72;;;4.40;;
59442;SDS011;45247;47.466;19.004;2023-05-19T04:29:00;6.03;;;4.05;;
59442;SDS011;45247;47.466;19.004;2023-05-19T04:31:30;8.32;;;4.65;;
59442;SDS011;45247;47.466;19.004;2023-05-19T04:34:01;5.80;;;4.13;;
59442;SDS011;45247;47.466;19.004;2023-05-19T04:36:30;7.53;;;4.20;;
59442;SDS011;45247;47.466;19.004;2023-05-19T04:39:01;8.65;;;4.80;;
59442;SDS011;45247;47.466;19.004;2023-05-19T04:41:32;7.78;;;4.45;;
59442;SDS011;45247;47.466;19.004;2023-05-19T04:44:00;13.27;;;4.18;;
59442;SDS011;45247;47.466;19.004;2023-05-19T04:46:29;12.90;;;3.78;;
59442;SDS011;45247;47.466;19.004;2023-05-19T04:48:57;5.70;;;3.20;;
59442;SDS011;45247;47.466;19.004;2023-05-19T04:51:26;6.20;;;4.07;;
59442;SDS011;45247;47.466;19.004;2023-05-19T04:53:56;5.90;;;4.15;;
59442;SDS011;45247;47.466;19.004;2023-05-19T04:56:26;7.90;;;4.40;;
59442;SDS011;45247;47.466;19.004;2023-05-19T04:58:55;10.10;;;4.50;;
59442;SDS011;45247;47.466;19.004;2023-05-19T05:01:23;9.70;;;4.57;;
59442;SDS011;45247;47.466;19.004;2023-05-19T05:03:53;9.63;;;4.57;;
59442;SDS011;45247;47.466;19.004;2023-05-19T05:08:54;5.03;;;3.45;;
59442;SDS011;45247;47.466;19.004;2023-05-19T05:11:22;5.43;;;3.72;;
59442;SDS011;45247;47.466;19.004;2023-05-19T05:13:52;7.05;;;3.78;;
59442;SDS011;45247;47.466;19.004;2023-05-19T05:16:23;9.07;;;4.10;;
59442;SDS011;45247;47.466;19.004;2023-05-19T05:18:53;7.40;;;3.78;;
59442;SDS011;45247;47.466;19.004;2023-05-19T05:21:21;6.53;;;4.82;;
59442;SDS011;45247;47.466;19.004;2023-05-19T05:23:50;7.97;;;4.43;;
59442;SDS011;45247;47.466;19.004;2023-05-19T05:26:19;8.02;;;4.47;;
59442;SDS011;45247;47.466;19.004;2023-05-19T05:28:48;8.68;;;4.07;;
59442;SDS011;45247;47.466;19.004;2023-05-19T05:31:18;8.27;;;4.97;;
59442;SDS011;45247;47.466;19.004;2023-05-19T05:33:46;11.20;;;4.90;;
59442;SDS011;45247;47.466;19.004;2023-05-19T05:36:15;8.43;;;4.78;;
59442;SDS011;45247;47.466;19.004;2023-05-19T05:38:43;9.02;;;5.22;;
59442;SDS011;45247;47.466;19.004;2023-05-19T05:41:11;6.30;;;4.82;;
59442;SDS011;45247;47.466;19.004;2023-05-19T05:43:39;15.55;;;5.20;;
59442;SDS011;45247;47.466;19.004;2023-05-19T05:46:07;8.38;;;4.43;;
59442;SDS011;45247;47.466;19.004;2023-05-19T05:48:37;7.38;;;4.80;;
59442;SDS011;45247;47.466;19.004;2023-05-19T05:51:08;7.18;;;4.75;;
59442;SDS011;45247;47.466;19.004;2023-05-19T05:53:39;11.57;;;5.40;;
59442;SDS011;45247;47.466;19.004;2023-05-19T05:56:10;6.70;;;4.18;;
59442;SDS011;45247;47.466;19.004;2023-05-19T05:58:39;7.60;;;4.70;;
59442;SDS011;45247;47.466;19.004;2023-05-19T06:01:07;6.40;;;4.80;;
59442;SDS011;45247;47.466;19.004;2023-05-19T06:03:39;5.10;;;4.25;;
59442;SDS011;45247;47.466;19.004;2023-05-19T06:06:09;7.60;;;4.38;;
59442;SDS011;45247;47.466;19.004;2023-05-19T06:08:38;6.05;;;4.35;;
59442;SDS011;45247;47.466;19.004;2023-05-19T06:11:06;6.50;;;4.15;;
59442;SDS011;45247;47.466;19.004;2023-05-19T06:13:35;7.18;;;4.38;;
59442;SDS011;45247;47.466;19.004;2023-05-19T06:16:03;10.85;;;4.80;;
59442;SDS011;45247;47.466;19.004;2023-05-19T06:18:32;7.07;;;5.03;;
59442;SDS011;45247;47.466;19.004;2023-05-19T06:21:02;9.05;;;4.93;;
59442;SDS011;45247;47.466;19.004;2023-05-19T06:23:30;9.93;;;5.57;;
59442;SDS011;45247;47.466;19.004;2023-05-19T06:25:58;7.65;;;4.78;;
59442;SDS011;45247;47.466;19.004;2023-05-19T06:28:26;10.75;;;4.80;;
59442;SDS011;45247;47.466;19.004;2023-05-19T06:30:54;6.07;;;4.38;;
59442;SDS011;45247;47.466;19.004;2023-05-19T06:33:23;8.88;;;5.05;;
59442;SDS011;45247;47.466;19.004;2023-05-19T06:35:57;7.13;;;4.70;;
59442;SDS011;45247;47.466;19.004;2023-05-19T06:38:27;7.50;;;5.18;;
59442;SDS011;45247;47.466;19.004;2023-05-19T06:40:56;11.23;;;5.68;;
59442;SDS011;45247;47.466;19.004;2023-05-19T06:43:25;6.78;;;5.10;;
59442;SDS011;45247;47.466;19.004;2023-05-19T06:45:54;9.80;;;5.20;;
59442;SDS011;45247;47.466;19.004;2023-05-19T06:48:22;6.75;;;4.85;;
59442;SDS011;45247;47.466;19.004;2023-05-19T06:50:50;6.47;;;4.60;;
59442;SDS011;45247;47.466;19.004;2023-05-19T06:53:19;9.07;;;4.75;;
59442;SDS011;45247;47.466;19.004;2023-05-19T06:55:48;7.22;;;4.55;;
59442;SDS011;45247;47.466;19.004;2023-05-19T06:58:25;6.43;;;4.35;;
59442;SDS011;45247;47.466;19.004;2023-05-19T07:00:53;11.88;;;4.32;;
59442;SDS011;45247;47.466;19.004;2023-05-19T07:03:21;4.93;;;3.85;;
59442;SDS011;45247;47.466;19.004;2023-05-19T07:05:50;6.68;;;4.03;;
59442;SDS011;45247;47.466;19.004;2023-05-19T07:08:18;11.23;;;4.38;;
59442;SDS011;45247;47.466;19.004;2023-05-19T07:10:46;11.18;;;4.20;;
59442;SDS011;45247;47.466;19.004;2023-05-19T07:13:16;8.18;;;4.57;;
59442;SDS011;45247;47.466;19.004;2023-05-19T07:15:44;8.85;;;4.13;;
59442;SDS011;45247;47.466;19.004;2023-05-19T07:18:14;4.45;;;3.85;;
59442;SDS011;45247;47.466;19.004;2023-05-19T07:20:42;8.65;;;4.60;;
59442;SDS011;45247;47.466;19.004;2023-05-19T07:23:11;7.45;;;3.70;;
59442;SDS011;45247;47.466;19.004;2023-05-19T07:25:42;7.53;;;3.67;;
59442;SDS011;45247;47.466;19.004;2023-05-19T07:28:11;9.55;;;4.07;;
59442;SDS011;45247;47.466;19.004;2023-05-19T07:30:40;6.18;;;3.88;;
59442;SDS011;45247;47.466;19.004;2023-05-19T07:33:08;6.43;;;3.90;;
59442;SDS011;45247;47.466;19.004;2023-05-19T07:35:36;8.13;;;3.88;;
59442;SDS011;45247;47.466;19.004;2023-05-19T07:38:05;5.43;;;3.22;;
59442;SDS011;45247;47.466;19.004;2023-05-19T07:40:33;6.25;;;3.40;;
59442;SDS011;45247;47.466;19.004;2023-05-19T07:43:01;7.22;;;3.58;;
59442;SDS011;45247;47.466;19.004;2023-05-19T07:45:30;4.78;;;3.17;;
59442;SDS011;45247;47.466;19.004;2023-05-19T07:47:59;6.10;;;3.53;;
59442;SDS011;45247;47.466;19.004;2023-05-19T07:50:28;8.70;;;3.33;;
59442;SDS011;45247;47.466;19.004;2023-05-19T07:52:56;5.47;;;2.85;;
59442;SDS011;45247;47.466;19.004;2023-05-19T07:55:27;6.93;;;2.95;;
59442;SDS011;45247;47.466;19.004;2023-05-19T07:57:55;6.53;;;2.63;;
59442;SDS011;45247;47.466;19.004;2023-05-19T08:00:24;3.60;;;2.50;;
59442;SDS011;45247;47.466;19.004;2023-05-19T08:02:52;3.70;;;2.25;;
59442;SDS011;45247;47.466;19.004;2023-05-19T08:05:23;4.10;;;2.30;;
59442;SDS011;45247;47.466;19.004;2023-05-19T08:07:52;4.80;;;2.42;;
59442;SDS011;45247;47.466;19.004;2023-05-19T08:10:20;4.05;;;2.10;;
59442;SDS011;45247;47.466;19.004;2023-05-19T08:12:48;6.10;;;2.42;;
59442;SDS011;45247;47.466;19.004;2023-05-19T08:15:16;3.38;;;2.08;;
59442;SDS011;45247;47.466;19.004;2023-05-19T08:17:45;4.63;;;2.30;;
59442;SDS011;45247;47.466;19.004;2023-05-19T08:20:13;4.05;;;2.17;;
59442;SDS011;45247;47.466;19.004;2023-05-19T08:22:42;5.57;;;2.45;;
59442;SDS011;45247;47.466;19.004;2023-05-19T08:25:11;2.85;;;2.05;;
59442;SDS011;45247;47.466;19.004;2023-05-19T08:27:39;5.43;;;2.30;;
59442;SDS011;45247;47.466;19.004;2023-05-19T08:30:08;5.05;;;2.20;;
59442;SDS011;45247;47.466;19.004;2023-05-19T08:32:36;3.75;;;2.35;;
59442;SDS011;45247;47.466;19.004;2023-05-19T08:35:05;4.88;;;2.40;;
59442;SDS011;45247;47.466;19.004;2023-05-19T08:37:34;6.63;;;2.17;;
59442;SDS011;45247;47.466;19.004;2023-05-19T08:40:06;5.63;;;2.45;;
59442;SDS011;45247;47.466;19.004;2023-05-19T08:42:38;5.03;;;2.60;;
59442;SDS011;45247;47.466;19.004;2023-05-19T08:45:07;3.53;;;2.65;;
59442;SDS011;45247;47.466;19.004;2023-05-19T08:47:35;6.63;;;2.53;;
59442;SDS011;45247;47.466;19.004;2023-05-19T08:50:04;4.20;;;2.63;;
59442;SDS011;45247;47.466;19.004;2023-05-19T08:55:20;5.13;;;3.08;;
59442;SDS011;45247;47.466;19.004;2023-05-19T08:57:56;5.70;;;3.10;;
59442;SDS011;45247;47.466;19.004;2023-05-19T09:00:25;7.10;;;2.97;;
59442;SDS011;45247;47.466;19.004;2023-05-19T09:02:55;5.55;;;2.95;;
59442;SDS011;45247;47.466;19.004;2023-05-19T09:05:43;5.40;;;2.80;;
59442;SDS011;45247;47.466;19.004;2023-05-19T09:08:12;5.18;;;2.58;;
59442;SDS011;45247;47.466;19.004;2023-05-19T09:10:42;5.57;;;2.40;;
59442;SDS011;45247;47.466;19.004;2023-05-19T09:13:11;4.78;;;2.50;;
59442;SDS011;45247;47.466;19.004;2023-05-19T09:15:39;4.03;;;2.90;;
59442;SDS011;45247;47.466;19.004;2023-05-19T09:18:09;3.70;;;2.80;;
59442;SDS011;45247;47.466;19.004;2023-05-19T09:20:39;6.93;;;2.50;;
59442;SDS011;45247;47.466;19.004;2023-05-19T09:23:11;4.28;;;2.40;;
59442;SDS011;45247;47.466;19.004;2023-05-19T09:25:49;6.35;;;3.08;;
59442;SDS011;45247;47.466;19.004;2023-05-19T09:28:25;9.77;;;3.13;;
59442;SDS011;45247;47.466;19.004;2023-05-19T09:30:58;4.55;;;3.20;;
59442;SDS011;45247;47.466;19.004;2023-05-19T09:33:27;6.15;;;3.22;;
59442;SDS011;45247;47.466;19.004;2023-05-19T09:35:56;5.82;;;3.55;;
59442;SDS011;45247;47.466;19.004;2023-05-19T09:38:24;7.10;;;3.70;;
59442;SDS011;45247;47.466;19.004;2023-05-19T09:40:56;6.80;;;3.40;;
59442;SDS011;45247;47.466;19.004;2023-05-19T09:43:26;6.60;;;3.60;;
59442;SDS011;45247;47.466;19.004;2023-05-19T09:45:57;6.88;;;3.63;;
59442;SDS011;45247;47.466;19.004;2023-05-19T09:50:56;6.10;;;3.80;;
59442;SDS011;45247;47.466;19.004;2023-05-19T09:53:24;5.53;;;3.88;;
59442;SDS011;45247;47.466;19.004;2023-05-19T09:55:54;7.20;;;3.95;;
59442;SDS011;45247;47.466;19.004;2023-05-19T09:58:24;7.57;;;4.03;;
59442;SDS011;45247;47.466;19.004;2023-05-19T10:00:53;8.40;;;4.38;;
59442;SDS011;45247;47.466;19.004;2023-05-19T10:03:22;6.40;;;4.40;;
59442;SDS011;45247;47.466;19.004;2023-05-19T10:05:52;7.57;;;3.97;;
59442;SDS011;45247;47.466;19.004;2023-05-19T10:08:20;8.77;;;4.65;;
59442;SDS011;45247;47.466;19.004;2023-05-19T10:10:49;6.47;;;4.15;;
59442;SDS011;45247;47.466;19.004;2023-05-19T10:13:19;5.78;;;4.15;;
59442;SDS011;45247;47.466;19.004;2023-05-19T10:15:49;6.75;;;4.25;;
59442;SDS011;45247;47.466;19.004;2023-05-19T10:18:25;7.07;;;3.70;;
59442;SDS011;45247;47.466;19.004;2023-05-19T10:20:55;8.52;;;3.83;;
59442;SDS011;45247;47.466;19.004;2023-05-19T10:23:24;8.95;;;4.60;;
59442;SDS011;45247;47.466;19.004;2023-05-19T10:25:53;12.65;;;3.95;;
59442;SDS011;45247;47.466;19.004;2023-05-19T10:28:29;9.90;;;4.30;;
59442;SDS011;45247;47.466;19.004;2023-05-19T10:31:01;6.53;;;4.65;;
59442;SDS011;45247;47.466;19.004;2023-05-19T10:33:35;6.07;;;4.13;;
59442;SDS011;45247;47.466;19.004;2023-05-19T10:36:24;10.30;;;4.13;;
59442;SDS011;45247;47.466;19.004;2023-05-19T10:39:06;7.70;;;4.70;;
59442;SDS011;45247;47.466;19.004;2023-05-19T10:41:46;6.28;;;3.97;;
59442;SDS011;45247;47.466;19.004;2023-05-19T10:44:34;9.05;;;4.32;;
59442;SDS011;45247;47.466;19.004;2023-05-19T10:47:13;5.78;;;4.32;;
59442;SDS011;45247;47.466;19.004;2023-05-19T10:49:41;9.88;;;4.03;;
59442;SDS011;45247;47.466;19.004;2023-05-19T10:52:17;8.70;;;4.75;;
59442;SDS011;45247;47.466;19.004;2023-05-19T10:54:48;10.23;;;4.68;;
59442;SDS011;45247;47.466;19.004;2023-05-19T10:57:17;6.68;;;4.32;;
59442;SDS011;45247;47.466;19.004;2023-05-19T10:59:48;4.75;;;4.05;;
59442;SDS011;45247;47.466;19.004;2023-05-19T11:05:07;6.70;;;4.90;;
59442;SDS011;45247;47.466;19.004;2023-05-19T11:07:36;6.43;;;5.20;;
59442;SDS011;45247;47.466;19.004;2023-05-19T11:10:09;6.95;;;4.13;;
59442;SDS011;45247;47.466;19.004;2023-05-19T11:12:41;6.10;;;4.40;;
59442;SDS011;45247;47.466;19.004;2023-05-19T11:15:14;6.97;;;4.32;;
59442;SDS011;45247;47.466;19.004;2023-05-19T11:17:44;6.95;;;4.85;;
59442;SDS011;45247;47.466;19.004;2023-05-19T11:20:21;6.10;;;4.30;;
59442;SDS011;45247;47.466;19.004;2023-05-19T11:23:00;5.60;;;4.13;;
59442;SDS011;45247;47.466;19.004;2023-05-19T11:25:41;5.45;;;4.65;;
59442;SDS011;45247;47.466;19.004;2023-05-19T11:28:11;6.13;;;4.43;;
59442;SDS011;45247;47.466;19.004;2023-05-19T11:30:41;5.60;;;3.95;;
59442;SDS011;45247;47.466;19.004;2023-05-19T11:33:11;9.52;;;4.53;;
59442;SDS011;45247;47.466;19.004;2023-05-19T11:35:40;4.93;;;3.92;;
59442;SDS011;45247;47.466;19.004;2023-05-19T11:38:09;11.25;;;4.72;;
59442;SDS011;45247;47.466;19.004;2023-05-19T11:40:39;7.28;;;4.20;;
59442;SDS011;45247;47.466;19.004;2023-05-19T11:43:11;8.10;;;4.15;;
59442;SDS011;45247;47.466;19.004;2023-05-19T11:45:40;9.63;;;4.35;;
59442;SDS011;45247;47.466;19.004;2023-05-19T11:48:09;7.57;;;3.80;;
59442;SDS011;45247;47.466;19.004;2023-05-19T11:50:39;9.23;;;4.03;;
59442;SDS011;45247;47.466;19.004;2023-05-19T11:53:10;6.38;;;3.47;;
59442;SDS011;45247;47.466;19.004;2023-05-19T11:55:42;17.65;;;4.15;;
59442;SDS011;45247;47.466;19.004;2023-05-19T11:58:13;5.85;;;3.55;;
59442;SDS011;45247;47.466;19.004;2023-05-19T12:00:43;8.88;;;4.38;;
59442;SDS011;45247;47.466;19.004;2023-05-19T12:03:13;7.60;;;3.63;;
59442;SDS011;45247;47.466;19.004;2023-05-19T12:05:43;8.35;;;3.38;;
59442;SDS011;45247;47.466;19.004;2023-05-19T12:08:15;5.60;;;3.70;;
59442;SDS011;45247;47.466;19.004;2023-05-19T12:10:46;6.40;;;3.67;;
59442;SDS011;45247;47.466;19.004;2023-05-19T12:13:16;5.70;;;3.40;;
59442;SDS011;45247;47.466;19.004;2023-05-19T12:15:45;5.07;;;3.30;;
59442;SDS011;45247;47.466;19.004;2023-05-19T12:18:14;5.72;;;3.50;;
59442;SDS011;45247;47.466;19.004;2023-05-19T12:20:42;10.25;;;3.72;;
59442;SDS011;45247;47.466;19.004;2023-05-19T12:23:10;8.40;;;3.35;;
59442;SDS011;45247;47.466;19.004;2023-05-19T12:25:39;5.60;;;3.22;;
59442;SDS011;45247;47.466;19.004;2023-05-19T12:28:08;5.47;;;3.20;;
59442;SDS011;45247;47.466;19.004;2023-05-19T12:30:36;5.50;;;3.85;;
59442;SDS011;45247;47.466;19.004;2023-05-19T12:33:06;12.75;;;3.40;;
59442;SDS011;45247;47.466;19.004;2023-05-19T12:35:35;7.85;;;3.55;;
59442;SDS011;45247;47.466;19.004;2023-05-19T12:38:04;6.70;;;3.60;;
59442;SDS011;45247;47.466;19.004;2023-05-19T12:40:33;5.40;;;3.28;;
59442;SDS011;45247;47.466;19.004;2023-05-19T12:43:02;5.85;;;3.60;;
59442;SDS011;45247;47.466;19.004;2023-05-19T12:45:32;4.72;;;3.10;;
59442;SDS011;45247;47.466;19.004;2023-05-19T12:48:02;5.53;;;3.30;;
59442;SDS011;45247;47.466;19.004;2023-05-19T12:50:33;6.28;;;3.35;;
59442;SDS011;45247;47.466;19.004;2023-05-19T12:55:37;7.15;;;3.40;;
59442;SDS011;45247;47.466;19.004;2023-05-19T12:58:07;4.60;;;3.30;;
59442;SDS011;45247;47.466;19.004;2023-05-19T13:00:39;7.70;;;3.50;;
59442;SDS011;45247;47.466;19.004;2023-05-19T13:03:13;7.95;;;3.45;;
59442;SDS011;45247;47.466;19.004;2023-05-19T13:05:45;6.70;;;3.30;;
59442;SDS011;45247;47.466;19.004;2023-05-19T13:08:14;3.80;;;3.17;;
59442;SDS011;45247;47.466;19.004;2023-05-19T13:10:46;7.78;;;3.35;;
59442;SDS011;45247;47.466;19.004;2023-05-19T13:13:14;4.95;;;3.45;;
59442;SDS011;45247;47.466;19.004;2023-05-19T13:15:44;6.75;;;3.30;;
59442;SDS011;45247;47.466;19.004;2023-05-19T13:18:16;4.07;;;3.10;;
59442;SDS011;45247;47.466;19.004;2023-05-19T13:20:46;5.68;;;3.22;;
59442;SDS011;45247;47.466;19.004;2023-05-19T13:23:15;4.63;;;3.35;;
59442;SDS011;45247;47.466;19.004;2023-05-19T13:25:44;10.82;;;3.30;;
59442;SDS011;45247;47.466;19.004;2023-05-19T13:28:12;5.93;;;3.20;;
59442;SDS011;45247;47.466;19.004;2023-05-19T13:30:41;8.25;;;3.50;;
59442;SDS011;45247;47.466;19.004;2023-05-19T13:33:10;5.50;;;3.20;;
59442;SDS011;45247;47.466;19.004;2023-05-19T13:35:38;4.60;;;3.03;;
59442;SDS011;45247;47.466;19.004;2023-05-19T13:38:08;6.20;;;3.10;;
59442;SDS011;45247;47.466;19.004;2023-05-19T13:40:36;5.60;;;2.70;;
59442;SDS011;45247;47.466;19.004;2023-05-19T13:43:05;4.85;;;2.90;;
59442;SDS011;45247;47.466;19.004;2023-05-19T13:45:34;5.38;;;2.63;;
59442;SDS011;45247;47.466;19.004;2023-05-19T13:48:02;7.68;;;3.15;;
59442;SDS011;45247;47.466;19.004;2023-05-19T13:50:33;4.07;;;2.97;;
59442;SDS011;45247;47.466;19.004;2023-05-19T13:53:01;6.30;;;2.80;;
59442;SDS011;45247;47.466;19.004;2023-05-19T13:55:30;7.43;;;2.55;;
59442;SDS011;45247;47.466;19.004;2023-05-19T13:57:59;6.88;;;3.08;;
59442;SDS011;45247;47.466;19.004;2023-05-19T14:00:27;6.70;;;2.60;;
59442;SDS011;45247;47.466;19.004;2023-05-19T14:02:56;4.45;;;2.95;;
59442;SDS011;45247;47.466;19.004;2023-05-19T14:05:26;10.05;;;3.10;;
59442;SDS011;45247;47.466;19.004;2023-05-19T14:07:54;5.57;;;2.80;;
59442;SDS011;45247;47.466;19.004;2023-05-19T14:10:23;4.57;;;2.40;;
59442;SDS011;45247;47.466;19.004;2023-05-19T14:12:53;5.53;;;3.10;;
59442;SDS011;45247;47.466;19.004;2023-05-19T14:15:45;8.13;;;2.70;;
59442;SDS011;45247;47.466;19.004;2023-05-19T14:18:14;5.78;;;2.53;;
59442;SDS011;45247;47.466;19.004;2023-05-19T14:20:42;6.53;;;2.78;;
59442;SDS011;45247;47.466;19.004;2023-05-19T14:23:10;5.32;;;2.30;;
59442;SDS011;45247;47.466;19.004;2023-05-19T14:25:40;6.35;;;2.45;;
59442;SDS011;45247;47.466;19.004;2023-05-19T14:28:10;6.65;;;2.47;;
59442;SDS011;45247;47.466;19.004;2023-05-19T14:30:38;4.10;;;2.63;;
59442;SDS011;45247;47.466;19.004;2023-05-19T14:33:07;4.35;;;2.92;;
59442;SDS011;45247;47.466;19.004;2023-05-19T14:35:35;5.13;;;2.50;;
59442;SDS011;45247;47.466;19.004;2023-05-19T14:38:03;5.93;;;2.60;;
59442;SDS011;45247;47.466;19.004;2023-05-19T14:40:32;4.57;;;2.45;;
59442;SDS011;45247;47.466;19.004;2023-05-19T14:43:00;3.15;;;2.60;;
59442;SDS011;45247;47.466;19.004;2023-05-19T14:45:30;10.20;;;2.88;;
59442;SDS011;45247;47.466;19.004;2023-05-19T14:47:58;3.63;;;2.28;;
59442;SDS011;45247;47.466;19.004;2023-05-19T14:50:26;5.38;;;2.22;;
59442;SDS011;45247;47.466;19.004;2023-05-19T14:52:55;3.47;;;2.38;;
59442;SDS011;45247;47.466;19.004;2023-05-19T14:55:23;5.38;;;2.90;;
59442;SDS011;45247;47.466;19.004;2023-05-19T14:57:51;5.53;;;2.80;;
59442;SDS011;45247;47.466;19.004;2023-05-19T15:00:19;5.30;;;2.80;;
59442;SDS011;45247;47.466;19.004;2023-05-19T15:02:49;8.00;;;2.42;;
59442;SDS011;45247;47.466;19.004;2023-05-19T15:05:17;4.72;;;2.30;;